Time;durP1;ratioP1;P1;durP2;ratioP2;P2;SDS_P1;SDS_P2;PMS_P1;PMS_P2;Temp;Humidity;BMP_temperature;BMP_pressure;BME280_temperature;BME280_humidity;BME280_pressure;Samples;Min_cycle;Max_cycle;Signal;HPM_P1;HPM_P2
2021/10/24 00:00:55;;;;;;;14.80;5.00;;;5.10;90.80;;;;;;5015485;28;20181;-89
2021/10/24 00:03:21;;;;;;;14.63;4.93;;;5.10;90.80;;;;;;5033035;28;20169;-89
2021/10/24 00:05:46;;;;;;;13.03;4.60;;;5.20;90.90;;;;;;5015554;28;20218;-90
2021/10/24 00:08:12;;;;;;;16.33;4.27;;;5.20;90.90;;;;;;5015346;28;20192;-90
2021/10/24 00:10:38;;;;;;;14.13;5.20;;;5.20;90.80;;;;;;5015683;28;20173;-90
2021/10/24 00:13:03;;;;;;;7.80;4.00;;;5.10;90.90;;;;;;5015409;28;20196;-91
2021/10/24 00:15:29;;;;;;;12.07;4.80;;;5.10;91.10;;;;;;5015442;28;20212;-90
2021/10/24 00:17:55;;;;;;;11.47;4.33;;;5.10;91.00;;;;;;5015151;28;20200;-90
2021/10/24 00:20:21;;;;;;;11.77;4.80;;;5.20;91.20;;;;;;5033172;28;20191;-91
2021/10/24 00:22:47;;;;;;;19.87;4.97;;;5.20;91.10;;;;;;5032905;28;20214;-91
2021/10/24 00:25:12;;;;;;;16.80;6.37;;;5.10;91.20;;;;;;5032813;28;20204;-89
2021/10/24 00:27:38;;;;;;;16.47;6.27;;;5.20;91.30;;;;;;5015137;28;20201;-90
2021/10/24 00:30:05;;;;;;;11.87;5.40;;;5.20;91.40;;;;;;5032801;28;20519;-90
2021/10/24 00:32:31;;;;;;;10.60;4.90;;;5.30;91.40;;;;;;5015177;28;20177;-90
2021/10/24 00:34:56;;;;;;;13.70;4.60;;;5.20;91.40;;;;;;5018444;28;20177;-90
2021/10/24 00:37:22;;;;;;;15.17;4.60;;;5.30;91.50;;;;;;5018575;28;20196;-90
2021/10/24 00:39:48;;;;;;;15.67;4.83;;;5.30;91.50;;;;;;5036402;28;20223;-90
2021/10/24 00:42:13;;;;;;;10.90;4.80;;;5.30;91.50;;;;;;5036621;28;20172;-90
2021/10/24 00:44:39;;;;;;;9.17;5.20;;;5.30;91.50;;;;;;5036340;28;20208;-90
2021/10/24 00:47:07;;;;;;;10.57;5.07;;;5.30;91.60;;;;;;5018675;28;20611;-90
2021/10/24 00:49:34;;;;;;;14.43;5.97;;;5.40;91.70;;;;;;5036242;28;20163;-90
2021/10/24 00:52:00;;;;;;;13.90;4.80;;;5.40;91.80;;;;;;5018441;28;20211;-90
2021/10/24 00:54:28;;;;;;;10.93;5.83;;;5.40;91.90;;;;;;5018724;28;20178;-90
2021/10/24 00:56:54;;;;;;;18.90;5.43;;;5.50;92.00;;;;;;5018682;28;20190;-90
2021/10/24 00:59:26;;;;;;;19.43;5.33;;;5.50;92.00;;;;;;5019193;28;20548;-90
2021/10/24 01:01:52;;;;;;;14.07;5.10;;;5.50;92.00;;;;;;5036083;28;20180;-90
2021/10/24 01:04:19;;;;;;;11.20;5.00;;;5.50;92.00;;;;;;5018183;28;20249;-90
2021/10/24 01:06:49;;;;;;;17.63;5.37;;;5.50;92.00;;;;;;5035743;28;20195;-90
2021/10/24 01:09:18;;;;;;;14.30;4.80;;;5.50;92.00;;;;;;5018279;28;20165;-90
2021/10/24 01:11:44;;;;;;;13.00;5.10;;;5.50;92.00;;;;;;5035695;28;20179;-90
2021/10/24 01:14:11;;;;;;;16.70;5.50;;;5.60;92.10;;;;;;5035896;28;20176;-90
2021/10/24 01:16:38;;;;;;;12.57;4.90;;;5.60;92.10;;;;;;5018175;28;20197;-90
2021/10/24 01:19:05;;;;;;;13.00;4.83;;;5.60;92.10;;;;;;5035650;28;20179;-90
2021/10/24 01:21:32;;;;;;;12.97;5.33;;;5.50;92.10;;;;;;5035910;28;20544;-90
2021/10/24 01:23:58;;;;;;;10.80;4.67;;;5.60;92.10;;;;;;5035626;28;20266;-90
2021/10/24 01:26:24;;;;;;;19.53;5.90;;;5.60;92.10;;;;;;5018771;28;20611;-90
2021/10/24 01:28:50;;;;;;;19.37;6.10;;;5.60;92.10;;;;;;5035371;28;20216;-90
2021/10/24 01:31:16;;;;;;;21.90;5.57;;;5.60;92.10;;;;;;5017621;28;20556;-90
2021/10/24 01:33:41;;;;;;;14.40;5.17;;;5.60;92.10;;;;;;5018093;28;20271;-90
2021/10/24 01:36:09;;;;;;;13.63;4.83;;;5.70;92.10;;;;;;5017940;28;20194;-90
2021/10/24 01:38:36;;;;;;;15.40;5.67;;;5.70;92.10;;;;;;5017464;28;20573;-90
2021/10/24 01:41:05;;;;;;;18.50;4.90;;;5.80;92.10;;;;;;5035232;28;20184;-90
2021/10/24 01:43:31;;;;;;;17.07;5.17;;;5.80;92.10;;;;;;5017442;28;20180;-91
2021/10/24 01:45:56;;;;;;;14.00;5.20;;;5.80;92.00;;;;;;5017844;28;20218;-90
2021/10/24 01:48:23;;;;;;;14.50;4.47;;;5.80;92.00;;;;;;5017477;28;20706;-90
2021/10/24 01:50:50;;;;;;;19.43;5.87;;;5.80;92.00;;;;;;5017172;28;20184;-90
2021/10/24 01:53:19;;;;;;;17.57;5.57;;;5.80;92.00;;;;;;5017002;28;20638;-91
2021/10/24 01:55:45;;;;;;;14.87;4.80;;;5.80;92.00;;;;;;5016937;28;20190;-90
2021/10/24 01:58:11;;;;;;;15.70;5.60;;;5.80;92.00;;;;;;5016902;28;20611;-90
2021/10/24 02:00:37;;;;;;;11.90;5.70;;;5.80;92.00;;;;;;5034920;28;20183;-90
2021/10/24 02:03:03;;;;;;;19.97;5.27;;;5.80;91.90;;;;;;5017208;28;20188;-90
2021/10/24 02:05:29;;;;;;;18.87;5.20;;;5.80;92.00;;;;;;5034506;28;20230;-90
2021/10/24 02:07:54;;;;;;;13.43;4.90;;;5.80;92.00;;;;;;5034644;28;20198;-91
2021/10/24 02:10:20;;;;;;;9.80;5.03;;;5.80;92.00;;;;;;5016838;28;20672;-91
2021/10/24 02:12:46;;;;;;;10.00;4.80;;;5.80;92.00;;;;;;5034411;28;20173;-91
2021/10/24 02:15:12;;;;;;;14.17;5.13;;;5.80;91.90;;;;;;5016610;28;20188;-90
2021/10/24 02:17:38;;;;;;;18.07;6.13;;;5.90;91.90;;;;;;5016835;28;20698;-91
2021/10/24 02:20:06;;;;;;;13.60;5.00;;;5.90;91.90;;;;;;5016612;28;20183;-90
2021/10/24 02:22:32;;;;;;;14.90;5.10;;;5.90;91.90;;;;;;5034176;28;20311;-90
2021/10/24 02:24:57;;;;;;;11.40;5.07;;;5.90;91.90;;;;;;5016471;28;20616;-90
2021/10/24 02:27:23;;;;;;;17.57;5.17;;;5.90;91.80;;;;;;5016623;28;20222;-91
2021/10/24 02:29:49;;;;;;;11.30;4.90;;;5.90;91.70;;;;;;5016519;28;20571;-90
2021/10/24 02:32:15;;;;;;;19.77;6.03;;;6.00;91.70;;;;;;5034187;28;20184;-90
2021/10/24 02:34:41;;;;;;;18.03;4.77;;;6.00;91.60;;;;;;5016337;28;20670;-90
2021/10/24 02:37:07;;;;;;;13.27;4.87;;;6.00;91.60;;;;;;5016171;28;20212;-90
2021/10/24 02:39:33;;;;;;;16.13;5.10;;;6.00;91.50;;;;;;5016227;28;20656;-90
2021/10/24 02:41:59;;;;;;;12.63;4.13;;;6.00;91.50;;;;;;5016174;28;20652;-90
2021/10/24 02:44:25;;;;;;;7.60;4.23;;;6.00;91.50;;;;;;5016168;28;20267;-91
2021/10/24 02:46:52;;;;;;;17.77;4.80;;;6.10;91.40;;;;;;5015817;28;20213;-91
2021/10/24 02:49:18;;;;;;;15.73;4.83;;;6.10;91.40;;;;;;5016105;28;20187;-90
2021/10/24 02:51:44;;;;;;;13.63;5.10;;;6.10;91.30;;;;;;5016166;28;20214;-90
2021/10/24 02:54:10;;;;;;;11.93;4.47;;;6.10;91.30;;;;;;5033598;28;20169;-90
2021/10/24 02:56:36;;;;;;;11.70;4.53;;;6.10;91.20;;;;;;5016399;28;20184;-90
2021/10/24 02:59:02;;;;;;;9.53;4.40;;;6.10;91.10;;;;;;5016885;28;20190;-91
2021/10/24 03:01:28;;;;;;;12.83;4.37;;;6.10;91.00;;;;;;5016069;28;20181;-91
2021/10/24 03:03:54;;;;;;;11.83;4.50;;;6.10;91.00;;;;;;5033502;28;20668;-90
2021/10/24 03:06:19;;;;;;;12.87;4.50;;;6.10;91.00;;;;;;5033361;28;20210;-90
2021/10/24 03:08:45;;;;;;;14.87;5.13;;;6.00;90.90;;;;;;5016097;28;20242;-90
2021/10/24 03:11:11;;;;;;;11.40;4.33;;;6.00;90.80;;;;;;5016049;28;20203;-90
2021/10/24 03:13:37;;;;;;;14.73;5.07;;;6.00;90.90;;;;;;5033400;28;20184;-90
2021/10/24 03:16:03;;;;;;;10.13;4.40;;;6.00;90.80;;;;;;5033378;28;20203;-91
2021/10/24 03:18:29;;;;;;;17.07;4.70;;;5.90;90.80;;;;;;5015598;28;20723;-90
2021/10/24 03:20:55;;;;;;;8.00;4.90;;;5.80;90.70;;;;;;5033326;28;20176;-90
2021/10/24 03:23:20;;;;;;;11.07;4.57;;;5.80;90.70;;;;;;5015652;28;20190;-90
2021/10/24 03:25:46;;;;;;;14.60;5.00;;;5.80;90.60;;;;;;5033258;28;20758;-90
2021/10/24 03:28:12;;;;;;;17.27;4.53;;;5.70;90.60;;;;;;5015669;28;20207;-90
2021/10/24 03:30:38;;;;;;;8.20;4.13;;;5.70;90.60;;;;;;5033547;28;20510;-90
2021/10/24 03:33:04;;;;;;;10.93;4.67;;;5.60;90.60;;;;;;5033225;28;20175;-90
2021/10/24 03:35:29;;;;;;;13.40;4.27;;;5.50;90.70;;;;;;5015514;28;20191;-90
2021/10/24 03:37:55;;;;;;;13.23;5.37;;;5.50;90.70;;;;;;5015916;28;20200;-90
2021/10/24 03:40:21;;;;;;;12.40;5.17;;;5.40;90.70;;;;;;5015798;28;20276;-90
2021/10/24 03:42:47;;;;;;;15.80;6.17;;;5.40;90.70;;;;;;5015333;28;20219;-90
2021/10/24 03:45:13;;;;;;;9.43;4.20;;;5.40;90.60;;;;;;5015290;28;20215;-90
2021/10/24 03:47:39;;;;;;;13.97;4.60;;;5.30;90.50;;;;;;5015409;28;20213;-90
2021/10/24 03:50:06;;;;;;;9.90;4.67;;;5.30;90.50;;;;;;5015415;28;20272;-90
2021/10/24 03:52:32;;;;;;;14.60;4.73;;;5.30;90.70;;;;;;5015714;28;20638;-90
2021/10/24 03:54:58;;;;;;;12.63;4.50;;;5.30;90.70;;;;;;5015412;28;20278;-90
2021/10/24 03:57:24;;;;;;;12.30;4.27;;;5.30;90.60;;;;;;5032982;28;20205;-90
2021/10/24 03:59:49;;;;;;;13.60;5.10;;;5.30;90.50;;;;;;5033316;28;20650;-90
2021/10/24 04:02:16;;;;;;;8.53;4.87;;;5.30;90.60;;;;;;5015239;28;20627;-90
2021/10/24 04:04:44;;;;;;;18.37;4.37;;;5.30;90.50;;;;;;5015401;28;20197;-90
2021/10/24 04:07:10;;;;;;;11.40;4.57;;;5.30;90.40;;;;;;5015665;28;20216;-90
2021/10/24 04:09:35;;;;;;;14.53;5.10;;;5.30;90.30;;;;;;5019458;28;20190;-90
2021/10/24 04:12:01;;;;;;;12.10;4.53;;;5.30;90.40;;;;;;5019359;28;20668;-90
2021/10/24 04:14:27;;;;;;;15.43;4.97;;;5.30;90.30;;;;;;5019403;28;20180;-90
2021/10/24 04:16:53;;;;;;;9.20;4.83;;;5.30;90.20;;;;;;5018985;28;20202;-90
2021/10/24 04:19:18;;;;;;;14.13;4.73;;;5.30;90.10;;;;;;5018887;28;20664;-90
2021/10/24 04:21:44;;;;;;;14.57;3.90;;;5.40;90.00;;;;;;5036446;28;20268;-90
2021/10/24 04:24:10;;;;;;;12.30;4.70;;;5.30;89.80;;;;;;5036669;28;20172;-90
2021/10/24 04:26:36;;;;;;;15.53;4.77;;;5.30;89.80;;;;;;5018504;28;20215;-90
2021/10/24 04:29:02;;;;;;;12.60;4.83;;;5.20;89.90;;;;;;5018735;28;20175;-90
2021/10/24 04:31:28;;;;;;;16.40;4.43;;;5.20;90.00;;;;;;5018640;28;20191;-90
2021/10/24 04:33:54;;;;;;;16.97;5.13;;;5.20;90.00;;;;;;5018837;28;20186;-90
2021/10/24 04:36:20;;;;;;;15.63;4.43;;;5.20;90.00;;;;;;5018442;28;20207;-90
2021/10/24 04:38:46;;;;;;;16.30;5.10;;;5.10;90.00;;;;;;5018289;28;20203;-90
2021/10/24 04:41:12;;;;;;;18.30;4.93;;;5.20;90.10;;;;;;5018464;28;20210;-90
2021/10/24 04:43:37;;;;;;;9.90;4.57;;;5.20;90.10;;;;;;5018358;28;20211;-90
2021/10/24 04:46:03;;;;;;;12.03;4.37;;;5.20;89.90;;;;;;5035757;28;20225;-90
2021/10/24 04:48:29;;;;;;;13.30;4.67;;;5.10;89.90;;;;;;5036436;28;20293;-90
2021/10/24 04:50:54;;;;;;;15.13;4.70;;;5.10;89.90;;;;;;5019065;28;20277;-90
2021/10/24 04:53:20;;;;;;;12.67;3.87;;;5.10;89.90;;;;;;5018072;28;20212;-90
2021/10/24 04:55:46;;;;;;;12.53;4.20;;;5.10;89.90;;;;;;5018196;28;20189;-90
2021/10/24 04:58:12;;;;;;;18.73;5.37;;;5.10;89.80;;;;;;5018229;28;20241;-90
2021/10/24 05:00:38;;;;;;;12.90;4.70;;;5.00;89.80;;;;;;5035734;28;20286;-90
2021/10/24 05:03:03;;;;;;;14.23;5.57;;;5.00;89.90;;;;;;5018004;28;20192;-90
2021/10/24 05:05:29;;;;;;;14.37;5.10;;;5.00;89.80;;;;;;5018154;28;20210;-90
2021/10/24 05:07:55;;;;;;;22.60;4.90;;;4.90;89.90;;;;;;5017852;28;20278;-90
2021/10/24 05:10:21;;;;;;;10.97;4.43;;;4.90;90.00;;;;;;5017730;28;20184;-90
2021/10/24 05:12:46;;;;;;;14.00;4.77;;;4.80;89.90;;;;;;5035765;28;20653;-90
2021/10/24 05:15:12;;;;;;;16.70;4.80;;;4.80;90.10;;;;;;5017676;28;20184;-90
2021/10/24 05:17:38;;;;;;;15.60;5.03;;;4.80;90.10;;;;;;5035522;28;20649;-90
2021/10/24 05:20:05;;;;;;;18.83;4.17;;;4.80;90.20;;;;;;5016900;28;20229;-90
2021/10/24 05:22:31;;;;;;;16.83;5.83;;;4.80;90.20;;;;;;5017630;28;20265;-90
2021/10/24 05:24:57;;;;;;;14.00;5.17;;;4.80;90.20;;;;;;5017677;28;20181;-90
2021/10/24 05:27:23;;;;;;;13.40;4.97;;;4.80;90.30;;;;;;5017699;28;20269;-90
2021/10/24 05:29:48;;;;;;;20.10;5.57;;;4.80;90.20;;;;;;5018055;28;20190;-90
2021/10/24 05:32:14;;;;;;;18.67;5.00;;;4.80;90.20;;;;;;5017511;28;20725;-90
2021/10/24 05:34:42;;;;;;;16.70;5.60;;;4.80;90.10;;;;;;5018230;28;20186;-90
2021/10/24 05:37:07;;;;;;;16.00;4.90;;;4.80;90.10;;;;;;5017554;28;20294;-90
2021/10/24 05:39:33;;;;;;;17.87;5.40;;;4.80;90.00;;;;;;5017243;28;20187;-90
2021/10/24 05:42:00;;;;;;;16.67;5.73;;;4.80;89.90;;;;;;5017188;28;20183;-90
2021/10/24 05:44:26;;;;;;;11.80;5.03;;;4.90;89.80;;;;;;5034953;28;20176;-90
2021/10/24 05:46:53;;;;;;;8.40;5.10;;;4.80;89.70;;;;;;5016988;28;20600;-90
2021/10/24 05:49:19;;;;;;;16.43;6.03;;;4.80;89.80;;;;;;5034854;28;20183;-90
2021/10/24 05:51:44;;;;;;;16.67;6.17;;;4.80;89.70;;;;;;5017151;28;20208;-90
2021/10/24 05:54:10;;;;;;;16.13;6.40;;;4.80;89.80;;;;;;5017335;28;20183;-91
2021/10/24 05:56:36;;;;;;;18.17;6.33;;;4.80;89.70;;;;;;5016976;28;20193;-90
2021/10/24 05:59:01;;;;;;;12.90;6.93;;;4.80;89.80;;;;;;5034664;28;20179;-90
2021/10/24 06:01:27;;;;;;;14.87;5.73;;;4.80;89.70;;;;;;5017117;28;20190;-90
2021/10/24 06:03:53;;;;;;;14.43;5.63;;;4.80;89.80;;;;;;5017159;28;20206;-90
2021/10/24 06:06:19;;;;;;;19.43;6.23;;;4.80;89.70;;;;;;5017065;28;20208;-90
2021/10/24 06:08:45;;;;;;;17.03;4.97;;;4.70;89.70;;;;;;5016725;28;20225;-90
2021/10/24 06:11:16;;;;;;;16.53;6.20;;;4.70;89.80;;;;;;5034427;28;20225;-90
2021/10/24 06:13:43;;;;;;;23.63;5.60;;;4.80;89.80;;;;;;5017663;28;20175;-90
2021/10/24 06:16:09;;;;;;;14.47;5.50;;;4.70;89.70;;;;;;5016975;28;20178;-90
2021/10/24 06:18:35;;;;;;;14.10;5.77;;;4.80;89.70;;;;;;5016474;28;20232;-90
2021/10/24 06:21:01;;;;;;;12.73;5.07;;;4.70;89.80;;;;;;5016893;28;20235;-90
2021/10/24 06:23:26;;;;;;;13.93;5.03;;;4.80;89.90;;;;;;5017197;28;20278;-90
2021/10/24 06:25:52;;;;;;;13.13;5.40;;;4.70;89.80;;;;;;5016371;28;20204;-90
2021/10/24 06:28:17;;;;;;;14.73;5.40;;;4.70;89.80;;;;;;5016730;28;20198;-91
2021/10/24 06:30:43;;;;;;;13.00;5.17;;;4.70;89.90;;;;;;5016652;28;20236;-90
2021/10/24 06:33:09;;;;;;;15.47;5.50;;;4.70;89.90;;;;;;5016369;28;20182;-90
2021/10/24 06:35:35;;;;;;;14.87;5.07;;;4.70;89.80;;;;;;5016324;28;20647;-90
2021/10/24 06:38:00;;;;;;;12.97;4.73;;;4.70;89.80;;;;;;5016174;28;20678;-90
2021/10/24 06:40:26;;;;;;;12.27;4.63;;;4.70;89.80;;;;;;5016230;28;20188;-90
2021/10/24 06:42:52;;;;;;;13.37;4.57;;;4.70;89.80;;;;;;5016252;28;20617;-90
2021/10/24 06:45:17;;;;;;;11.33;5.47;;;4.70;89.70;;;;;;5016037;28;20194;-90
2021/10/24 06:47:46;;;;;;;15.67;5.67;;;4.70;89.80;;;;;;5015966;28;20306;-90
2021/10/24 06:50:12;;;;;;;15.17;5.00;;;4.70;89.80;;;;;;5033810;28;20662;-90
2021/10/24 06:52:38;;;;;;;13.20;4.57;;;4.70;89.80;;;;;;5033957;28;20198;-90
2021/10/24 06:55:04;;;;;;;9.87;5.20;;;4.70;89.80;;;;;;5016328;28;20204;-90
2021/10/24 06:57:30;;;;;;;14.30;5.13;;;4.80;89.80;;;;;;5016016;28;20207;-90
2021/10/24 07:00:06;;;;;;;16.33;5.90;;;4.80;89.70;;;;;;5034055;28;20236;-90
2021/10/24 07:02:31;;;;;;;15.23;5.27;;;4.80;89.70;;;;;;5015857;28;20183;-90
2021/10/24 07:04:57;;;;;;;14.00;5.13;;;4.80;89.80;;;;;;5016128;28;20202;-91
2021/10/24 07:07:23;;;;;;;12.57;5.27;;;4.80;89.80;;;;;;5016062;28;20264;-90
2021/10/24 07:09:50;;;;;;;13.67;4.90;;;4.80;89.80;;;;;;5016184;28;20180;-91
2021/10/24 07:12:15;;;;;;;13.13;5.43;;;4.90;89.80;;;;;;5015864;28;20552;-90
2021/10/24 07:14:41;;;;;;;14.23;5.63;;;4.90;89.60;;;;;;5015723;28;20199;-90
2021/10/24 07:17:07;;;;;;;14.53;5.13;;;5.00;89.60;;;;;;5015820;28;20207;-90
2021/10/24 07:19:32;;;;;;;15.40;6.17;;;4.90;89.70;;;;;;5015423;28;20918;-90
2021/10/24 07:21:58;;;;;;;18.83;5.90;;;5.00;89.70;;;;;;5033611;28;20908;-90
2021/10/24 07:24:23;;;;;;;19.67;6.40;;;5.00;89.60;;;;;;5015615;28;20183;-90
2021/10/24 07:26:49;;;;;;;16.53;4.60;;;5.00;89.60;;;;;;5033160;28;20204;-90
2021/10/24 07:29:15;;;;;;;18.37;4.73;;;5.10;89.60;;;;;;5033513;28;20703;-90
2021/10/24 07:31:40;;;;;;;13.13;4.90;;;5.20;89.70;;;;;;5033305;28;20225;-90
2021/10/24 07:34:06;;;;;;;12.87;5.27;;;5.20;89.70;;;;;;5033190;28;20254;-90
2021/10/24 07:36:32;;;;;;;11.47;5.17;;;5.30;89.70;;;;;;5015524;28;20614;-90
2021/10/24 07:38:58;;;;;;;16.70;5.60;;;5.30;89.50;;;;;;5016193;28;20202;-89
2021/10/24 07:41:24;;;;;;;14.20;5.67;;;5.30;89.60;;;;;;5015386;28;20641;-89
2021/10/24 07:43:50;;;;;;;12.13;5.13;;;5.40;89.60;;;;;;5018519;28;20171;-89
2021/10/24 07:46:15;;;;;;;11.23;4.57;;;5.50;89.40;;;;;;5019307;28;20296;-90
2021/10/24 07:48:41;;;;;;;17.80;6.00;;;5.50;89.30;;;;;;5019493;28;20206;-89
2021/10/24 07:51:07;;;;;;;17.13;5.17;;;5.50;89.50;;;;;;5037086;28;20803;-90
2021/10/24 07:53:33;;;;;;;14.43;5.17;;;5.60;89.30;;;;;;5019276;28;20179;-90
2021/10/24 07:56:00;;;;;;;15.17;5.50;;;5.60;89.20;;;;;;5020094;28;20173;-89
2021/10/24 07:58:26;;;;;;;13.67;5.20;;;5.70;89.30;;;;;;5019068;28;20206;-89
2021/10/24 08:00:52;;;;;;;12.90;5.20;;;5.80;89.00;;;;;;5019241;28;20208;-89
2021/10/24 08:03:18;;;;;;;15.43;5.33;;;5.80;89.00;;;;;;5036838;28;20176;-89
2021/10/24 08:05:44;;;;;;;10.37;5.07;;;5.80;88.80;;;;;;5037017;28;20655;-90
2021/10/24 08:08:10;;;;;;;12.70;4.93;;;5.90;88.80;;;;;;5018939;28;20221;-90
2021/10/24 08:10:36;;;;;;;18.00;4.80;;;5.90;88.60;;;;;;5019506;28;20595;-89
2021/10/24 08:13:02;;;;;;;16.77;6.00;;;6.00;88.70;;;;;;5036669;28;20178;-89
2021/10/24 08:15:27;;;;;;;11.63;4.87;;;6.00;88.80;;;;;;5037189;28;20176;-89
2021/10/24 08:17:53;;;;;;;10.33;5.03;;;6.10;88.60;;;;;;5036443;28;20253;-90
2021/10/24 08:20:19;;;;;;;18.00;5.07;;;6.20;88.20;;;;;;5018877;28;20625;-89
2021/10/24 08:22:45;;;;;;;14.63;5.57;;;6.20;88.40;;;;;;5036742;28;20209;-89
2021/10/24 08:25:13;;;;;;;11.60;5.30;;;6.30;88.20;;;;;;5018660;28;20266;-90
2021/10/24 08:27:39;;;;;;;12.37;5.53;;;6.30;88.00;;;;;;5018645;28;20220;-89
2021/10/24 08:30:08;;;;;;;13.53;5.70;;;6.30;87.90;;;;;;5036308;28;20187;-89
2021/10/24 08:32:35;;;;;;;12.17;5.50;;;6.40;88.30;;;;;;5018533;28;20180;-89
2021/10/24 08:35:02;;;;;;;14.93;5.60;;;6.40;88.10;;;;;;5018445;28;20172;-89
2021/10/24 08:37:28;;;;;;;10.80;5.30;;;6.50;88.20;;;;;;5018417;28;20203;-89
2021/10/24 08:39:53;;;;;;;14.30;5.80;;;6.60;88.00;;;;;;5036169;28;20176;-89
2021/10/24 08:42:26;;;;;;;11.53;5.63;;;6.60;88.10;;;;;;5018969;28;20190;-89
2021/10/24 08:44:56;;;;;;;11.37;5.60;;;6.60;87.90;;;;;;5018450;28;20183;-89
2021/10/24 08:47:23;;;;;;;16.90;6.10;;;6.70;87.80;;;;;;5018360;28;20216;-89
2021/10/24 08:49:49;;;;;;;12.10;6.30;;;6.70;87.40;;;;;;5018240;28;20197;-89
2021/10/24 08:52:23;;;;;;;10.50;5.50;;;6.80;87.20;;;;;;5018317;28;20607;-89
2021/10/24 08:54:50;;;;;;;13.17;5.40;;;6.90;87.40;;;;;;5016818;28;20616;-89
2021/10/24 08:57:24;;;;;;;11.47;5.97;;;7.00;87.20;;;;;;5018014;28;20200;-89
2021/10/24 08:59:50;;;;;;;15.03;5.83;;;7.00;86.80;;;;;;5018028;28;20180;-89
2021/10/24 09:02:15;;;;;;;14.60;5.90;;;7.10;87.10;;;;;;5018238;28;20180;-89
2021/10/24 09:04:52;;;;;;;11.57;5.90;;;7.10;87.20;;;;;;5035666;28;20173;-89
2021/10/24 09:07:19;;;;;;;14.40;6.13;;;7.20;87.40;;;;;;5017779;28;20627;-89
2021/10/24 09:09:45;;;;;;;13.00;5.73;;;7.20;86.70;;;;;;5018219;28;20169;-89
2021/10/24 09:12:16;;;;;;;11.00;6.10;;;7.30;86.90;;;;;;5035553;28;20256;-89
2021/10/24 09:14:52;;;;;;;12.57;6.57;;;7.50;87.20;;;;;;5035677;28;20622;-89
2021/10/24 09:17:23;;;;;;;11.37;5.53;;;7.60;86.50;;;;;;5017899;28;20204;-89
2021/10/24 09:20:02;;;;;;;14.50;6.00;;;7.60;86.40;;;;;;5017642;28;20173;-89
2021/10/24 09:22:33;;;;;;;10.67;6.17;;;7.70;86.50;;;;;;5017742;28;20196;-89
2021/10/24 09:25:12;;;;;;;15.40;6.73;;;7.80;86.80;;;;;;5018101;28;20179;-89
2021/10/24 09:27:48;;;;;;;11.43;6.13;;;7.80;86.10;;;;;;5018079;28;20207;-90
2021/10/24 09:30:21;;;;;;;12.60;5.50;;;8.00;86.70;;;;;;5017837;28;20207;-90
2021/10/24 09:32:56;;;;;;;9.83;5.20;;;8.10;85.50;;;;;;5035243;28;20169;-89
2021/10/24 09:35:44;;;;;;;12.53;5.37;;;8.10;84.80;;;;;;5035158;28;20500;-89
2021/10/24 09:38:20;;;;;;;13.53;5.63;;;8.30;84.80;;;;;;5017319;28;20201;-89
2021/10/24 09:40:52;;;;;;;14.83;5.30;;;8.30;83.80;;;;;;5017695;28;20180;-89
2021/10/24 09:43:21;;;;;;;10.40;5.53;;;8.50;84.90;;;;;;5017318;28;20180;-89
2021/10/24 09:45:57;;;;;;;12.00;5.37;;;8.50;84.00;;;;;;5017219;28;20197;-89
2021/10/24 09:48:25;;;;;;;17.97;5.40;;;8.60;84.20;;;;;;5016966;28;20232;-89
2021/10/24 09:50:56;;;;;;;13.40;5.57;;;8.60;83.00;;;;;;5034835;28;20247;-89
2021/10/24 09:53:25;;;;;;;12.47;5.43;;;8.80;83.80;;;;;;5017060;28;20172;-89
2021/10/24 09:55:54;;;;;;;10.17;4.80;;;8.90;82.80;;;;;;5017319;28;20192;-89
2021/10/24 09:58:21;;;;;;;10.90;4.73;;;8.90;82.50;;;;;;5017057;28;20196;-89
2021/10/24 10:00:47;;;;;;;10.17;5.17;;;9.00;82.70;;;;;;5034901;28;20248;-89
2021/10/24 10:03:15;;;;;;;14.77;4.77;;;9.20;82.00;;;;;;5016805;28;20204;-89
2021/10/24 10:05:40;;;;;;;5.50;4.53;;;9.30;81.50;;;;;;5017239;28;20200;-89
2021/10/24 10:08:08;;;;;;;11.37;4.83;;;9.30;81.30;;;;;;5016704;28;20566;-89
2021/10/24 10:10:38;;;;;;;12.97;5.50;;;9.30;80.80;;;;;;5016803;28;20169;-89
2021/10/24 10:13:12;;;;;;;10.17;4.73;;;9.30;80.70;;;;;;5016733;28;20223;-89
2021/10/24 10:15:42;;;;;;;8.23;4.63;;;9.50;81.60;;;;;;5016704;28;20172;-89
2021/10/24 10:18:08;;;;;;;15.70;4.63;;;9.50;80.20;;;;;;5016483;28;20246;-90
2021/10/24 10:20:44;;;;;;;11.23;5.30;;;9.70;80.70;;;;;;5017035;28;20622;-90
2021/10/24 10:23:14;;;;;;;14.17;4.80;;;9.80;81.10;;;;;;5017419;28;20262;-90
2021/10/24 10:25:42;;;;;;;19.30;4.93;;;9.90;81.10;;;;;;5017201;28;20209;-90
2021/10/24 10:28:13;;;;;;;10.90;5.13;;;9.90;80.90;;;;;;5034038;28;20271;-90
2021/10/24 10:30:42;;;;;;;13.83;5.27;;;10.00;80.30;;;;;;5034120;28;20589;-89
2021/10/24 10:33:34;;;;;;;9.80;5.17;;;10.00;79.30;;;;;;5034102;28;20223;-89
2021/10/24 10:36:03;;;;;;;10.67;4.53;;;10.20;79.80;;;;;;5016261;28;20553;-88
2021/10/24 10:38:34;;;;;;;16.10;6.40;;;10.30;80.80;;;;;;5016096;28;20246;-89
2021/10/24 10:41:01;;;;;;;14.50;5.30;;;10.40;79.70;;;;;;5016317;28;20199;-88
2021/10/24 10:43:26;;;;;;;11.80;4.47;;;10.40;78.50;;;;;;5016172;28;20230;-89
2021/10/24 10:45:53;;;;;;;9.07;4.87;;;10.40;77.90;;;;;;5016082;28;20204;-89
2021/10/24 10:48:22;;;;;;;10.53;4.00;;;10.50;78.00;;;;;;5015946;28;20232;-89
2021/10/24 10:50:52;;;;;;;9.73;4.80;;;10.40;77.80;;;;;;5016274;28;20209;-89
2021/10/24 10:53:39;;;;;;;9.53;4.77;;;10.70;79.30;;;;;;5016026;28;20627;-89
2021/10/24 10:56:05;;;;;;;13.13;5.03;;;10.70;77.80;;;;;;5033559;28;20172;-89
2021/10/24 10:58:41;;;;;;;12.00;4.73;;;11.00;79.10;;;;;;5033524;28;20193;-89
2021/10/24 11:01:24;;;;;;;13.97;4.33;;;11.00;77.40;;;;;;5015882;28;20531;-89
2021/10/24 11:03:51;;;;;;;11.37;4.30;;;11.10;77.20;;;;;;5033619;28;20263;-89
2021/10/24 11:06:23;;;;;;;13.37;4.80;;;11.20;76.80;;;;;;5016092;28;20542;-89
2021/10/24 11:08:57;;;;;;;12.20;4.67;;;11.30;76.70;;;;;;5015741;28;20575;-89
2021/10/24 11:11:38;;;;;;;9.87;4.33;;;11.30;75.00;;;;;;5015812;28;20520;-89
2021/10/24 11:14:18;;;;;;;7.00;3.93;;;11.40;75.90;;;;;;5015757;28;20177;-89
2021/10/24 11:16:49;;;;;;;9.20;3.60;;;11.40;75.00;;;;;;5015476;28;20216;-89
2021/10/24 11:19:31;;;;;;;13.97;5.43;;;11.50;75.00;;;;;;5015570;28;20248;-89
2021/10/24 11:22:02;;;;;;;8.63;5.00;;;11.50;75.80;;;;;;5015609;28;20603;-89
2021/10/24 11:24:44;;;;;;;10.13;4.20;;;11.50;74.30;;;;;;5015927;28;20169;-89
2021/10/24 11:27:15;;;;;;;13.90;4.40;;;11.40;74.10;;;;;;5015469;28;20215;-88
2021/10/24 11:29:55;;;;;;;9.83;3.90;;;11.50;73.70;;;;;;5016436;28;20164;-90
2021/10/24 11:32:30;;;;;;;10.63;4.33;;;11.60;72.90;;;;;;5015555;28;20545;-89
2021/10/24 11:35:03;;;;;;;10.60;4.07;;;11.80;73.60;;;;;;5015535;28;20172;-89
2021/10/24 11:37:47;;;;;;;10.67;4.20;;;11.80;72.30;;;;;;5015811;28;20692;-89
2021/10/24 11:40:17;;;;;;;8.43;4.00;;;11.70;71.80;;;;;;5015466;28;20637;-89
2021/10/24 11:43:00;;;;;;;9.57;4.43;;;11.80;70.60;;;;;;5015440;28;20633;-89
2021/10/24 11:45:29;;;;;;;9.93;4.10;;;11.90;71.30;;;;;;5032992;28;20165;-89
2021/10/24 11:48:06;;;;;;;14.23;4.13;;;11.90;70.10;;;;;;5032841;28;20580;-89
2021/10/24 11:50:45;;;;;;;6.27;4.00;;;11.90;72.00;;;;;;5033331;28;20223;-88
2021/10/24 11:53:22;;;;;;;8.07;4.30;;;11.90;70.50;;;;;;5015680;28;20207;-89
2021/10/24 11:55:53;;;;;;;7.67;3.73;;;12.00;69.40;;;;;;5016224;28;20275;-89
2021/10/24 11:58:36;;;;;;;6.90;4.10;;;11.90;70.50;;;;;;5015403;28;20203;-90
2021/10/24 12:01:09;;;;;;;7.60;4.00;;;12.00;68.50;;;;;;5016130;28;20180;-89
2021/10/24 12:03:38;;;;;;;10.83;4.13;;;12.10;68.20;;;;;;5032948;28;20231;-89
2021/10/24 12:06:04;;;;;;;13.00;4.90;;;12.20;70.00;;;;;;5015204;28;20204;-89
2021/10/24 12:08:46;;;;;;;10.13;3.70;;;12.50;69.90;;;;;;5015054;28;20276;-89
2021/10/24 12:11:44;;;;;;;14.77;4.70;;;12.40;68.20;;;;;;5015639;28;20175;-90
2021/10/24 12:14:13;;;;;;;10.20;4.40;;;12.50;68.80;;;;;;5014921;28;20521;-89
2021/10/24 12:16:41;;;;;;;11.90;4.77;;;12.30;68.60;;;;;;5014680;28;20227;-89
2021/10/24 12:19:17;;;;;;;8.10;4.13;;;12.60;67.70;;;;;;5014848;28;20177;-89
2021/10/24 12:21:55;;;;;;;7.23;3.83;;;12.60;69.10;;;;;;5033418;28;20160;-89
2021/10/24 12:24:24;;;;;;;9.20;3.33;;;12.60;67.90;;;;;;5015173;28;20177;-89
2021/10/24 12:27:05;;;;;;;7.67;3.37;;;12.80;68.00;;;;;;5032636;28;20203;-89
2021/10/24 12:29:31;;;;;;;5.57;3.40;;;12.80;67.00;;;;;;5017489;28;20538;-89
2021/10/24 12:32:12;;;;;;;6.67;3.17;;;12.50;67.40;;;;;;5036401;28;20165;-89
2021/10/24 12:34:56;;;;;;;5.77;2.73;;;12.50;66.20;;;;;;5036230;28;20192;-89
2021/10/24 12:37:22;;;;;;;8.47;2.93;;;12.40;64.80;;;;;;5036158;28;20188;-89
2021/10/24 12:39:47;;;;;;;9.00;3.23;;;12.70;67.30;;;;;;5018381;28;20601;-88
2021/10/24 12:42:22;;;;;;;5.87;3.00;;;12.80;66.00;;;;;;5036122;28;20177;-88
2021/10/24 12:44:48;;;;;;;9.33;3.07;;;12.80;65.30;;;;;;5036027;28;20208;-89
2021/10/24 12:47:16;;;;;;;9.53;3.07;;;12.80;65.20;;;;;;5018327;28;20740;-89
2021/10/24 12:49:56;;;;;;;6.03;2.90;;;12.90;66.30;;;;;;5018281;28;20199;-89